createdAt,value
2017-08-23T00:01:25.708Z,1.87
2017-08-23T00:03:53.108Z,1.93
2017-08-23T00:06:20.495Z,1.90
2017-08-23T00:08:47.903Z,1.80
2017-08-23T00:11:15.298Z,1.60
2017-08-23T00:13:42.703Z,2.17
2017-08-23T00:16:10.091Z,1.80
2017-08-23T00:18:37.481Z,1.90
2017-08-23T00:21:04.879Z,1.60
2017-08-23T00:23:32.275Z,1.73
2017-08-23T00:25:59.707Z,2.00
2017-08-23T00:28:27.095Z,2.00
2017-08-23T00:30:54.500Z,2.67
2017-08-23T00:33:21.896Z,2.30
2017-08-23T00:35:49.538Z,2.03
2017-08-23T00:38:16.931Z,2.13
2017-08-23T00:40:44.331Z,2.23
2017-08-23T00:43:11.719Z,2.20
2017-08-23T00:45:39.145Z,2.40
2017-08-23T00:48:06.527Z,2.07
2017-08-23T00:50:34.183Z,2.40
2017-08-23T00:53:01.567Z,2.40
2017-08-23T00:55:28.983Z,2.40
2017-08-23T00:57:56.371Z,2.10
2017-08-23T01:00:23.767Z,1.50
2017-08-23T01:02:51.177Z,2.30
2017-08-23T01:05:18.563Z,2.10
2017-08-23T01:07:45.966Z,2.17
2017-08-23T01:10:13.359Z,2.57
2017-08-23T01:12:40.746Z,2.50
2017-08-23T01:15:08.133Z,2.47
2017-08-23T01:17:35.537Z,2.50
2017-08-23T01:20:02.927Z,2.30
2017-08-23T01:22:30.323Z,2.80
2017-08-23T01:24:57.789Z,2.10
2017-08-23T01:27:25.171Z,2.20
2017-08-23T01:29:52.560Z,2.17
2017-08-23T01:32:19.962Z,2.13
2017-08-23T01:34:47.351Z,2.20
2017-08-23T01:37:14.760Z,2.10
2017-08-23T01:39:42.150Z,2.00
2017-08-23T01:42:09.535Z,1.97
2017-08-23T01:44:37.198Z,2.13
2017-08-23T01:47:04.598Z,2.20
2017-08-23T01:49:31.987Z,2.07
2017-08-23T01:51:59.377Z,2.00
2017-08-23T01:54:26.775Z,2.00
2017-08-23T01:56:54.191Z,1.70
2017-08-23T01:59:21.586Z,1.60
2017-08-23T02:01:48.986Z,2.10
2017-08-23T02:04:16.381Z,2.40
2017-08-23T02:06:43.762Z,2.00
2017-08-23T02:09:11.167Z,1.90
2017-08-23T02:11:38.823Z,2.10
2017-08-23T02:14:06.475Z,1.83
2017-08-23T02:16:33.859Z,1.63
2017-08-23T02:19:01.243Z,1.77
2017-08-23T02:21:28.644Z,2.03
2017-08-23T02:23:56.029Z,1.37
2017-08-23T02:26:23.658Z,1.83
2017-08-23T02:28:51.046Z,1.70
2017-08-23T02:31:18.442Z,1.63
2017-08-23T02:33:45.827Z,1.87
2017-08-23T02:36:13.222Z,1.87
2017-08-23T02:38:40.615Z,1.90
2017-08-23T02:41:08.014Z,1.80
2017-08-23T02:43:35.403Z,1.60
2017-08-23T02:46:02.798Z,1.60
2017-08-23T02:48:30.189Z,1.90
2017-08-23T02:50:57.815Z,1.60
2017-08-23T02:53:25.208Z,2.37
2017-08-23T02:55:52.610Z,1.30
2017-08-23T02:58:20.006Z,2.00
2017-08-23T03:00:47.400Z,2.20
2017-08-23T03:03:15.099Z,1.60
2017-08-23T03:05:42.488Z,1.53
2017-08-23T03:08:09.878Z,1.90
2017-08-23T03:10:37.258Z,1.63
2017-08-23T03:13:04.659Z,2.40
2017-08-23T03:15:32.043Z,1.70
2017-08-23T03:17:59.445Z,1.60
2017-08-23T03:20:27.090Z,1.73
2017-08-23T03:22:54.490Z,1.80
2017-08-23T03:25:21.880Z,2.20
2017-08-23T03:27:49.274Z,1.77
2017-08-23T03:30:16.685Z,2.30
2017-08-23T03:32:44.087Z,2.03
2017-08-23T03:35:11.470Z,1.93
2017-08-23T03:37:38.860Z,1.50
2017-08-23T03:40:06.252Z,1.63
2017-08-23T03:42:33.642Z,1.90
2017-08-23T03:45:01.030Z,1.50
2017-08-23T03:47:28.419Z,1.83
2017-08-23T03:49:55.811Z,1.87
2017-08-23T03:52:23.518Z,1.50
2017-08-23T03:54:50.914Z,1.70
2017-08-23T03:57:18.298Z,1.90
2017-08-23T03:59:45.696Z,1.97
2017-08-23T04:02:13.182Z,1.80
2017-08-23T04:04:40.576Z,1.90
2017-08-23T04:07:08.258Z,1.67
2017-08-23T04:09:35.653Z,1.73
2017-08-23T04:12:03.035Z,2.10
2017-08-23T04:14:30.434Z,1.70
2017-08-23T04:16:57.818Z,1.60
2017-08-23T04:19:25.207Z,1.90
2017-08-23T04:21:52.610Z,1.70
2017-08-23T04:24:20.007Z,2.40
2017-08-23T04:26:47.402Z,1.93
2017-08-23T04:29:15.084Z,2.20
2017-08-23T04:31:42.479Z,1.90
2017-08-23T04:34:09.887Z,2.17
2017-08-23T04:36:37.286Z,2.00
2017-08-23T04:39:04.674Z,2.20
2017-08-23T04:41:32.067Z,1.77
2017-08-23T04:43:59.550Z,2.17
2017-08-23T04:46:26.951Z,2.30
2017-08-23T04:48:54.343Z,2.03
2017-08-23T04:51:21.778Z,1.90
2017-08-23T04:53:49.163Z,2.00
2017-08-23T04:56:16.559Z,2.07
2017-08-23T04:58:43.952Z,1.97
2017-08-23T05:01:11.358Z,1.97
2017-08-23T05:03:38.747Z,2.00
2017-08-23T05:06:06.147Z,2.20
2017-08-23T05:08:33.539Z,2.20
2017-08-23T05:11:00.936Z,3.40
2017-08-23T05:13:28.343Z,5.97
2017-08-23T05:15:56.018Z,4.23
2017-08-23T05:18:23.426Z,3.47
2017-08-23T05:20:50.823Z,2.97
2017-08-23T05:23:18.236Z,3.87
2017-08-23T05:25:45.621Z,1.97
2017-08-23T05:30:51.963Z,2.20
2017-08-23T05:33:19.359Z,2.10
2017-08-23T05:35:46.748Z,2.60
2017-08-23T05:38:14.167Z,2.80
2017-08-23T05:40:41.542Z,3.00
2017-08-23T05:43:08.950Z,2.83
2017-08-23T05:45:36.329Z,3.60
2017-08-23T05:48:03.716Z,4.37
2017-08-23T05:50:31.116Z,2.90
2017-08-23T05:52:58.500Z,2.97
2017-08-23T05:55:25.898Z,3.33
2017-08-23T05:57:53.531Z,3.27
2017-08-23T06:00:20.942Z,3.60
2017-08-23T06:02:48.326Z,3.60
2017-08-23T06:05:15.727Z,3.80
2017-08-23T06:07:43.126Z,3.30
2017-08-23T06:10:10.594Z,2.87
2017-08-23T06:12:37.978Z,3.20
2017-08-23T06:15:05.375Z,3.37
2017-08-23T06:17:32.763Z,3.83
2017-08-23T06:20:00.184Z,3.60
2017-08-23T06:22:27.573Z,4.20
2017-08-23T06:24:54.975Z,3.57
2017-08-23T06:27:22.364Z,4.20
2017-08-23T06:29:49.774Z,3.60
2017-08-23T06:32:17.170Z,3.30
2017-08-23T06:34:44.564Z,4.10
2017-08-23T06:37:11.956Z,3.50
2017-08-23T06:39:39.568Z,3.63
2017-08-23T06:42:06.983Z,3.60
2017-08-23T06:44:34.371Z,4.57
2017-08-23T06:47:01.762Z,4.10
2017-08-23T06:49:29.151Z,4.30
2017-08-23T06:51:56.546Z,3.70
2017-08-23T06:54:23.939Z,4.43
2017-08-23T06:56:51.344Z,3.70
2017-08-23T06:59:18.742Z,4.20
2017-08-23T07:01:46.138Z,3.40
2017-08-23T07:04:13.538Z,4.17
2017-08-23T07:06:40.926Z,3.50
2017-08-23T07:09:08.317Z,3.43
2017-08-23T07:11:35.719Z,3.73
2017-08-23T07:14:03.127Z,3.63
2017-08-23T07:16:30.530Z,3.33
2017-08-23T07:18:57.937Z,3.67
2017-08-23T07:21:25.333Z,3.67
2017-08-23T07:23:52.731Z,2.47
2017-08-23T07:26:20.131Z,2.20
2017-08-23T07:28:47.749Z,2.50
2017-08-23T07:31:15.184Z,2.07
2017-08-23T07:33:42.778Z,2.60
2017-08-23T07:36:10.166Z,2.57
2017-08-23T07:38:37.774Z,2.90
2017-08-23T07:41:05.194Z,2.37
2017-08-23T07:43:32.599Z,2.47
2017-08-23T07:46:00.000Z,2.50
2017-08-23T07:48:27.612Z,2.03
2017-08-23T07:50:55.016Z,2.20
2017-08-23T07:53:22.429Z,2.40
2017-08-23T07:55:49.810Z,1.70
2017-08-23T07:58:17.213Z,2.20
2017-08-23T08:00:44.620Z,2.03
2017-08-23T08:03:12.024Z,1.73
2017-08-23T08:05:39.403Z,1.43
2017-08-23T08:08:06.807Z,1.77
2017-08-23T08:10:34.209Z,2.00
2017-08-23T08:13:01.606Z,1.93
2017-08-23T08:15:29.012Z,1.73
2017-08-23T08:17:56.398Z,1.40
2017-08-23T08:20:23.910Z,1.47
2017-08-23T08:22:51.283Z,1.70
2017-08-23T08:25:18.696Z,1.40
2017-08-23T08:27:46.084Z,1.50
2017-08-23T08:30:13.492Z,1.80
2017-08-23T08:32:40.881Z,2.10
2017-08-23T08:35:08.482Z,1.80
2017-08-23T08:37:35.879Z,1.70
2017-08-23T08:40:03.278Z,1.80
2017-08-23T08:42:30.712Z,2.50
2017-08-23T08:44:58.087Z,1.97
2017-08-23T08:47:25.480Z,1.50
2017-08-23T08:49:52.867Z,1.80
2017-08-23T08:52:20.263Z,1.60
2017-08-23T08:54:47.654Z,2.27
2017-08-23T08:57:15.059Z,2.17
2017-08-23T08:59:42.452Z,2.10
2017-08-23T09:02:09.851Z,2.87
2017-08-23T09:04:37.285Z,2.40
2017-08-23T09:07:04.670Z,2.40
2017-08-23T09:09:32.063Z,1.83
2017-08-23T09:11:59.460Z,1.93
2017-08-23T09:14:26.851Z,1.47
2017-08-23T09:16:54.247Z,1.83
2017-08-23T09:19:21.643Z,2.40
2017-08-23T09:21:49.039Z,2.70
2017-08-23T09:24:16.434Z,1.73
2017-08-23T09:26:43.821Z,1.97
2017-08-23T09:29:11.211Z,3.33
2017-08-23T09:31:38.598Z,2.97
2017-08-23T09:34:06.000Z,2.67
2017-08-23T09:36:33.410Z,2.00
2017-08-23T09:39:00.814Z,2.63
2017-08-23T09:41:28.214Z,1.80
2017-08-23T09:43:55.604Z,1.87
2017-08-23T09:46:22.994Z,1.97
2017-08-23T09:48:50.387Z,2.90
2017-08-23T09:51:17.782Z,2.80
2017-08-23T09:53:45.183Z,2.70
2017-08-23T09:56:12.580Z,2.23
2017-08-23T09:58:40.186Z,2.03
2017-08-23T10:01:07.584Z,1.83
2017-08-23T10:03:34.974Z,2.57
2017-08-23T10:06:02.375Z,1.90
2017-08-23T10:08:29.758Z,2.20
2017-08-23T10:10:57.163Z,2.40
2017-08-23T10:13:24.559Z,2.10
2017-08-23T10:15:51.956Z,2.40
2017-08-23T10:18:19.356Z,2.83
2017-08-23T10:20:46.747Z,1.87
2017-08-23T10:23:14.139Z,2.00
2017-08-23T10:25:41.527Z,2.23
2017-08-23T10:28:08.931Z,1.70
2017-08-23T10:30:36.315Z,1.67
2017-08-23T10:33:03.711Z,1.70
2017-08-23T10:35:31.328Z,1.90
2017-08-23T10:37:58.728Z,2.10
2017-08-23T10:40:26.115Z,2.67
2017-08-23T10:42:53.525Z,1.90
2017-08-23T10:45:20.919Z,2.70
2017-08-23T10:47:48.319Z,2.30
2017-08-23T10:50:15.709Z,2.17
2017-08-23T10:52:43.108Z,1.80
2017-08-23T10:55:10.494Z,3.07
2017-08-23T10:57:37.904Z,2.03
2017-08-23T11:00:05.317Z,2.17
2017-08-23T11:02:32.731Z,1.87
2017-08-23T11:05:00.147Z,2.20
2017-08-23T11:07:27.550Z,2.10
2017-08-23T11:09:54.951Z,2.00
2017-08-23T11:12:22.357Z,1.50
2017-08-23T11:14:49.751Z,1.73
2017-08-23T11:17:17.143Z,2.30
2017-08-23T11:19:44.547Z,2.23
2017-08-23T11:22:11.922Z,2.40
2017-08-23T11:24:39.326Z,2.10
2017-08-23T11:27:07.611Z,2.43
2017-08-23T11:29:35.029Z,2.60
2017-08-23T11:32:02.415Z,1.97
2017-08-23T11:34:29.815Z,1.83
2017-08-23T11:36:57.215Z,2.13
2017-08-23T11:39:24.618Z,2.00
2017-08-23T11:41:52.000Z,2.30
2017-08-23T11:44:19.400Z,2.43
2017-08-23T11:46:46.790Z,2.13
2017-08-23T11:49:14.190Z,2.50
2017-08-23T11:54:01.571Z,2.40
2017-08-23T11:56:28.964Z,1.80
2017-08-23T11:58:56.359Z,2.40
2017-08-23T12:01:23.755Z,2.53
2017-08-23T12:03:51.164Z,2.00
2017-08-23T12:06:18.547Z,2.27
2017-08-23T12:08:45.931Z,2.57
2017-08-23T12:11:13.326Z,2.10
2017-08-23T12:13:41.036Z,2.70
2017-08-23T12:16:08.492Z,2.30
2017-08-23T12:18:36.386Z,2.03
2017-08-23T12:21:03.763Z,1.87
2017-08-23T12:23:31.378Z,1.77
2017-08-23T12:25:58.767Z,2.50
2017-08-23T12:28:26.171Z,2.10
2017-08-23T12:30:53.556Z,2.17
2017-08-23T12:33:20.951Z,2.70
2017-08-23T12:35:48.548Z,1.90
2017-08-23T12:38:15.951Z,2.33
2017-08-23T12:40:43.347Z,2.20
2017-08-23T12:43:10.747Z,2.10
2017-08-23T12:45:38.131Z,2.27
2017-08-23T12:48:05.523Z,1.73
2017-08-23T12:50:32.910Z,2.20
2017-08-23T12:53:00.320Z,1.90
2017-08-23T12:55:27.722Z,1.97
2017-08-23T12:57:55.127Z,1.83
2017-08-23T13:00:22.528Z,1.90
2017-08-23T13:02:49.919Z,2.37
2017-08-23T13:05:17.327Z,1.93
2017-08-23T13:07:44.735Z,2.10
2017-08-23T13:10:12.342Z,2.53
2017-08-23T13:12:39.738Z,1.80
2017-08-23T13:15:07.140Z,1.70
2017-08-23T13:17:34.522Z,2.00
2017-08-23T13:20:01.923Z,2.10
2017-08-23T13:22:29.311Z,1.87
2017-08-23T13:24:56.719Z,1.60
2017-08-23T13:27:24.113Z,1.70
2017-08-23T13:29:51.526Z,1.60
2017-08-23T13:32:18.919Z,1.77
2017-08-23T13:34:46.307Z,2.47
2017-08-23T13:37:13.711Z,1.80
2017-08-23T13:39:41.095Z,1.70
2017-08-23T13:42:08.494Z,1.70
2017-08-23T13:44:35.906Z,2.20
2017-08-23T13:47:03.296Z,2.80
2017-08-23T13:49:30.678Z,2.00
2017-08-23T13:51:58.071Z,2.30
2017-08-23T13:54:25.700Z,2.00
2017-08-23T13:56:53.110Z,2.10
2017-08-23T13:59:20.516Z,2.40
2017-08-23T14:01:47.911Z,2.10
2017-08-23T14:04:15.336Z,1.80
2017-08-23T14:06:42.737Z,1.90
2017-08-23T14:09:10.176Z,2.53
2017-08-23T14:11:37.590Z,2.07
2017-08-23T14:14:04.984Z,1.80
2017-08-23T14:16:32.370Z,1.97
2017-08-23T14:18:59.775Z,2.10
2017-08-23T14:21:27.163Z,2.20
2017-08-23T14:23:54.567Z,1.97
2017-08-23T14:26:21.971Z,1.70
2017-08-23T14:28:49.379Z,1.90
2017-08-23T14:31:16.767Z,1.57
2017-08-23T14:33:44.167Z,2.57
2017-08-23T14:36:11.783Z,1.80
2017-08-23T14:38:39.166Z,1.50
2017-08-23T14:41:06.577Z,1.60
2017-08-23T14:43:33.968Z,1.50
2017-08-23T14:46:01.358Z,1.60
2017-08-23T14:48:28.757Z,1.77
2017-08-23T14:50:56.147Z,1.57
2017-08-23T14:53:23.548Z,1.90
2017-08-23T14:55:50.934Z,1.60
2017-08-23T14:58:18.336Z,2.03
2017-08-23T15:00:45.723Z,2.03
2017-08-23T15:03:13.897Z,1.87
2017-08-23T15:05:41.298Z,1.47
2017-08-23T15:08:08.695Z,1.80
2017-08-23T15:10:36.087Z,2.03
2017-08-23T15:13:03.498Z,1.90
2017-08-23T15:15:31.111Z,1.60
2017-08-23T15:17:58.507Z,1.60
2017-08-23T15:20:26.119Z,1.67
2017-08-23T15:22:53.511Z,2.00
2017-08-23T15:25:20.911Z,1.80
2017-08-23T15:27:48.308Z,2.03
2017-08-23T15:30:15.714Z,1.87
2017-08-23T15:32:43.166Z,1.90
2017-08-23T15:35:10.559Z,1.53
2017-08-23T15:37:38.006Z,1.77
2017-08-23T15:40:05.407Z,1.70
2017-08-23T15:42:32.811Z,1.60
2017-08-23T15:45:00.216Z,2.10
2017-08-23T15:47:27.622Z,1.73
2017-08-23T15:49:55.024Z,1.67
2017-08-23T15:52:22.626Z,2.00
2017-08-23T15:54:50.019Z,1.73
2017-08-23T15:57:17.419Z,1.73
2017-08-23T15:59:44.817Z,1.80
2017-08-23T16:02:12.214Z,1.70
2017-08-23T16:04:39.599Z,1.53
2017-08-23T16:07:07.559Z,1.80
2017-08-23T16:09:34.948Z,2.00
2017-08-23T16:12:07.706Z,2.53
2017-08-23T16:14:35.108Z,1.60
2017-08-23T16:17:02.493Z,2.13
2017-08-23T16:19:29.884Z,1.73
2017-08-23T16:21:59.279Z,2.00
2017-08-23T16:24:26.683Z,1.63
2017-08-23T16:26:54.075Z,1.67
2017-08-23T16:29:21.545Z,1.70
2017-08-23T16:31:48.919Z,2.80
2017-08-23T16:34:16.320Z,2.13
2017-08-23T16:36:43.711Z,3.43
2017-08-23T16:39:11.102Z,2.67
2017-08-23T16:41:38.488Z,2.40
2017-08-23T16:44:05.891Z,1.90
2017-08-23T16:46:33.275Z,2.73
2017-08-23T16:49:00.679Z,1.97
2017-08-23T16:51:28.067Z,2.27
2017-08-23T16:53:55.479Z,2.03
2017-08-23T16:56:22.882Z,2.37
2017-08-23T16:58:50.282Z,1.73
2017-08-23T17:01:17.687Z,2.10
2017-08-23T17:03:45.095Z,1.80
2017-08-23T17:06:12.506Z,2.13
2017-08-23T17:08:39.903Z,2.10
2017-08-23T17:11:07.306Z,2.50
2017-08-23T17:13:34.706Z,2.27
2017-08-23T17:16:02.105Z,2.70
2017-08-23T17:18:29.487Z,3.27
2017-08-23T17:20:57.095Z,3.43
2017-08-23T17:23:24.487Z,3.20
2017-08-23T17:25:51.886Z,4.00
2017-08-23T17:28:19.271Z,3.50
2017-08-23T17:30:46.676Z,3.53
2017-08-23T17:33:14.059Z,2.87
2017-08-23T17:35:41.462Z,1.73
2017-08-23T17:38:08.864Z,1.97
2017-08-23T17:40:36.275Z,2.43
2017-08-23T17:43:03.660Z,1.80
2017-08-23T17:45:31.046Z,1.53
2017-08-23T17:47:58.441Z,1.83
2017-08-23T17:50:25.831Z,2.00
2017-08-23T17:52:53.232Z,2.10
2017-08-23T17:55:20.731Z,1.90
2017-08-23T17:57:48.140Z,1.90
2017-08-23T18:00:15.604Z,2.27
2017-08-23T18:02:43.209Z,2.30
2017-08-23T18:05:10.599Z,2.13
2017-08-23T18:07:37.995Z,2.33
2017-08-23T18:10:05.420Z,1.83
2017-08-23T18:12:32.811Z,2.37
2017-08-23T18:15:00.219Z,2.33
2017-08-23T18:17:27.633Z,2.10
2017-08-23T18:19:55.030Z,2.03
2017-08-23T18:22:22.503Z,2.20
2017-08-23T18:24:50.088Z,2.47
2017-08-23T18:27:17.498Z,2.00
2017-08-23T18:29:44.903Z,2.27
2017-08-23T18:32:12.334Z,1.97
2017-08-23T18:34:39.774Z,1.40
2017-08-23T18:37:07.154Z,2.00
2017-08-23T18:39:34.547Z,2.10
2017-08-23T18:42:02.155Z,2.90
2017-08-23T18:44:30.293Z,2.20
2017-08-23T18:46:58.441Z,2.50
2017-08-23T18:49:25.868Z,2.37
2017-08-23T18:51:54.400Z,2.20
2017-08-23T18:54:21.865Z,2.23
2017-08-23T18:56:49.315Z,2.30
2017-08-23T18:59:16.797Z,2.73
2017-08-23T19:01:44.339Z,2.33
2017-08-23T19:04:11.818Z,2.70
2017-08-23T19:06:39.292Z,2.47
2017-08-23T19:09:06.776Z,2.33
2017-08-23T19:11:34.355Z,3.00
2017-08-23T19:14:01.948Z,2.90
2017-08-23T19:16:29.336Z,2.90
2017-08-23T19:18:56.982Z,2.10
2017-08-23T19:21:24.398Z,2.60
2017-08-23T19:23:51.783Z,2.30
2017-08-23T19:26:19.184Z,3.10
2017-08-23T19:28:46.578Z,2.00
2017-08-23T19:31:13.982Z,2.43
2017-08-23T19:33:41.374Z,2.57
2017-08-23T19:36:08.795Z,2.60
2017-08-23T19:38:36.175Z,2.23
2017-08-23T19:41:03.572Z,2.83
2017-08-23T19:43:30.971Z,2.73
2017-08-23T19:45:58.422Z,2.50
2017-08-23T19:48:25.807Z,2.33
2017-08-23T19:50:53.791Z,2.67
2017-08-23T19:53:21.189Z,2.60
2017-08-23T19:55:48.570Z,2.90
2017-08-23T19:58:15.963Z,3.40
2017-08-23T20:00:43.355Z,2.67
2017-08-23T20:03:10.758Z,2.67
2017-08-23T20:05:38.140Z,2.53
2017-08-23T20:08:05.543Z,2.40
2017-08-23T20:10:32.943Z,2.60
2017-08-23T20:13:00.360Z,2.93
2017-08-23T20:15:27.743Z,3.00
2017-08-23T20:17:55.172Z,2.47
2017-08-23T20:20:22.573Z,2.60
2017-08-23T20:22:49.960Z,2.63
2017-08-23T20:25:17.360Z,2.60
2017-08-23T20:27:44.791Z,2.90
2017-08-23T20:30:12.187Z,2.63
2017-08-23T20:32:39.574Z,2.97
2017-08-23T20:35:06.996Z,2.77
2017-08-23T20:37:34.379Z,2.70
2017-08-23T20:40:01.791Z,2.80
2017-08-23T20:42:29.172Z,2.63
2017-08-23T20:44:56.567Z,3.10
2017-08-23T20:47:23.963Z,2.87
2017-08-23T20:49:51.368Z,2.77
2017-08-23T20:52:18.755Z,2.60
2017-08-23T20:54:46.143Z,2.80
2017-08-23T20:57:13.533Z,2.20
2017-08-23T20:59:40.947Z,2.50
2017-08-23T21:02:08.339Z,2.50
2017-08-23T21:04:35.727Z,2.47
2017-08-23T21:07:03.143Z,2.17
2017-08-23T21:09:30.584Z,2.53
2017-08-23T21:11:57.963Z,2.67
2017-08-23T21:14:25.355Z,2.63
2017-08-23T21:16:52.749Z,3.27
2017-08-23T21:19:20.146Z,2.70
2017-08-23T21:21:47.534Z,2.50
2017-08-23T21:24:14.927Z,2.47
2017-08-23T21:26:42.320Z,2.87
2017-08-23T21:29:09.710Z,2.23
2017-08-23T21:31:37.107Z,2.33
2017-08-23T21:34:04.498Z,2.57
2017-08-23T21:36:31.895Z,2.53
2017-08-23T21:38:59.287Z,2.30
2017-08-23T21:41:26.713Z,3.17
2017-08-23T21:43:54.104Z,2.80
2017-08-23T21:46:21.504Z,2.57
2017-08-23T21:48:48.900Z,2.77
2017-08-23T21:51:16.301Z,2.70
2017-08-23T21:53:43.686Z,2.80
2017-08-23T21:56:11.071Z,2.83
2017-08-23T21:58:38.476Z,2.53
2017-08-23T22:01:06.084Z,3.07
2017-08-23T22:03:33.491Z,2.87
2017-08-23T22:06:00.876Z,2.50
2017-08-23T22:08:28.271Z,2.60
2017-08-23T22:10:55.667Z,2.60
2017-08-23T22:13:23.063Z,2.30
2017-08-23T22:15:50.451Z,2.70
2017-08-23T22:18:17.842Z,2.87
2017-08-23T22:20:45.251Z,3.07
2017-08-23T22:23:12.701Z,3.27
2017-08-23T22:25:40.083Z,2.90
2017-08-23T22:28:07.457Z,3.00
2017-08-23T22:30:34.862Z,2.77
2017-08-23T22:33:02.245Z,3.30
2017-08-23T22:35:29.648Z,3.00
2017-08-23T22:37:57.039Z,3.50
2017-08-23T22:40:24.451Z,2.80
2017-08-23T22:42:51.848Z,3.30
2017-08-23T22:45:19.242Z,3.03
2017-08-23T22:47:46.643Z,3.03
2017-08-23T22:50:14.043Z,3.13
2017-08-23T22:52:41.433Z,3.00
2017-08-23T22:55:08.839Z,3.13
2017-08-23T22:57:36.228Z,3.30
2017-08-23T23:00:03.802Z,3.07
2017-08-23T23:02:31.190Z,3.10
2017-08-23T23:04:58.586Z,2.80
2017-08-23T23:07:25.966Z,3.23
2017-08-23T23:09:53.375Z,3.97
2017-08-23T23:12:20.763Z,3.10
2017-08-23T23:14:48.358Z,3.00
2017-08-23T23:17:15.969Z,3.20
2017-08-23T23:19:43.356Z,3.43
2017-08-23T23:22:10.754Z,3.83
2017-08-23T23:24:38.136Z,3.03
2017-08-23T23:27:05.539Z,3.00
2017-08-23T23:29:32.927Z,4.13
2017-08-23T23:32:00.322Z,3.40
2017-08-23T23:34:27.728Z,3.97
2017-08-23T23:36:55.112Z,3.30
2017-08-23T23:39:22.511Z,3.33
2017-08-23T23:41:49.907Z,3.93
2017-08-23T23:44:17.295Z,3.60
2017-08-23T23:46:44.701Z,3.70
2017-08-23T23:49:12.083Z,2.90
2017-08-23T23:51:39.486Z,3.00
2017-08-23T23:54:06.871Z,3.63
2017-08-23T23:56:34.275Z,4.10
2017-08-23T23:59:01.658Z,3.83
